Time;durP1;ratioP1;P1;durP2;ratioP2;P2;SDS_P1;SDS_P2;PMS_P1;PMS_P2;Temp;Humidity;BMP_temperature;BMP_pressure;BME280_temperature;BME280_humidity;BME280_pressure;Samples;Min_cycle;Max_cycle;Signal;HPM_P1;HPM_P2
2023/03/13 00:01:25;;;;;;;2.47;1.48;;;;;;;7.14;70.30;100338.13;4947730;28;20061;-59
2023/03/13 00:03:56;;;;;;;2.33;1.50;;;;;;;7.16;70.23;100345.91;4947120;28;20054;-61
2023/03/13 00:06:31;;;;;;;2.67;1.35;;;;;;;7.12;70.29;100334.66;4946471;28;20047;-58
2023/03/13 00:09:05;;;;;;;4.22;1.95;;;;;;;6.72;70.82;100287.06;4937235;28;20053;-60
2023/03/13 00:11:36;;;;;;;6.40;1.55;;;;;;;7.15;70.43;100347.66;4949277;27;20130;-60
2023/03/13 00:14:08;;;;;;;2.17;1.63;;;;;;;7.19;70.24;100331.19;4950907;27;20075;-57
2023/03/13 00:16:39;;;;;;;4.88;1.50;;;;;;;7.27;70.30;100339.84;4950580;27;20086;-59
2023/03/13 00:19:10;;;;;;;2.17;1.30;;;;;;;7.32;70.26;100343.28;4946107;27;20053;-60
2023/03/13 00:21:41;;;;;;;2.28;1.33;;;;;;;7.37;69.66;100339.81;4959347;27;20590;-59
2023/03/13 00:24:13;;;;;;;2.20;1.50;;;;;;;7.38;69.34;100323.34;4963078;27;20058;-58
2023/03/13 00:26:44;;;;;;;2.88;1.60;;;;;;;7.34;69.11;100305.16;4946553;28;20043;-58
2023/03/13 00:29:14;;;;;;;4.18;1.67;;;;;;;7.35;69.46;100309.47;4954838;27;20047;-57
2023/03/13 00:31:45;;;;;;;3.20;1.48;;;;;;;7.48;68.85;100296.44;4963242;27;20158;-59
2023/03/13 00:34:16;;;;;;;3.33;1.50;;;;;;;7.49;68.79;100269.59;4950345;27;20083;-58
2023/03/13 00:36:46;;;;;;;2.45;1.70;;;;;;;7.53;68.43;100268.69;4949474;27;20135;-56
2023/03/13 00:39:19;;;;;;;5.20;1.70;;;;;;;7.58;68.16;100277.34;4949022;27;20039;-57
2023/03/13 00:41:49;;;;;;;4.45;1.77;;;;;;;7.66;68.24;100270.41;4945979;28;20441;-57
2023/03/13 00:44:20;;;;;;;4.55;1.70;;;;;;;7.72;67.63;100280.75;4942237;28;20067;-59
2023/03/13 00:46:51;;;;;;;7.93;1.80;;;;;;;7.73;67.68;100261.66;4950403;27;20120;-58
2023/03/13 00:49:22;;;;;;;4.65;1.52;;;;;;;7.79;67.47;100266.00;4948108;27;20054;-57
2023/03/13 00:51:52;;;;;;;3.38;1.80;;;;;;;7.83;67.21;100266.84;4958336;27;20051;-57
2023/03/13 00:54:24;;;;;;;3.90;1.70;;;;;;;7.92;66.82;100261.59;4961151;27;20131;-57
2023/03/13 00:56:55;;;;;;;6.10;1.48;;;;;;;7.90;66.58;100247.72;4949109;28;20058;-58
2023/03/13 00:59:26;;;;;;;2.42;1.35;;;;;;;7.98;66.18;100238.97;4948960;27;20055;-58
2023/03/13 01:01:56;;;;;;;1.58;1.15;;;;;;;8.03;65.97;100236.34;4949290;28;20054;-58
2023/03/13 01:04:27;;;;;;;2.70;1.40;;;;;;;8.16;65.76;100238.03;4949594;28;20512;-57
2023/03/13 01:06:58;;;;;;;4.20;1.95;;;;;;;8.20;65.63;100236.25;4950100;27;20100;-57
2023/03/13 01:09:30;;;;;;;3.22;1.58;;;;;;;8.23;65.63;100224.94;4949177;27;20048;-58
2023/03/13 01:12:00;;;;;;;2.33;1.50;;;;;;;8.25;65.17;100236.22;4944165;27;20400;-56
2023/03/13 01:14:31;;;;;;;4.70;1.48;;;;;;;8.31;65.18;100237.06;4950477;27;20524;-59
2023/03/13 01:17:02;;;;;;;4.18;1.88;;;;;;;7.85;65.05;100155.84;4949233;27;20770;-58
2023/03/13 01:19:33;;;;;;;4.00;1.75;;;;;;;8.38;64.74;100245.66;4948582;28;20142;-58
2023/03/13 01:22:03;;;;;;;4.25;1.80;;;;;;;8.40;64.86;100238.75;4949529;28;20047;-57
2023/03/13 01:24:36;;;;;;;3.60;1.65;;;;;;;8.37;64.79;100241.34;4948062;28;20060;-58
2023/03/13 01:27:06;;;;;;;5.03;1.50;;;;;;;8.44;64.84;100250.88;4945209;28;20138;-58
2023/03/13 01:29:37;;;;;;;6.63;1.83;;;;;;;8.48;64.80;100241.28;4946857;28;20120;-56
2023/03/13 01:32:08;;;;;;;2.70;1.65;;;;;;;8.43;64.81;100249.13;4948627;27;20073;-57
2023/03/13 01:34:39;;;;;;;4.18;1.67;;;;;;;8.38;65.07;100253.47;4947849;28;20047;-57
2023/03/13 01:37:12;;;;;;;7.05;2.00;;;;;;;8.47;64.71;100266.47;4946873;28;20060;-56
2023/03/13 01:39:45;;;;;;;11.52;1.90;;;;;;;8.53;64.58;100276.81;4945722;28;20059;-56
2023/03/13 01:42:15;;;;;;;4.15;1.90;;;;;;;8.57;64.43;100262.03;4945148;28;20162;-57
2023/03/13 01:44:54;;;;;;;4.70;2.13;;;;;;;8.63;64.03;100252.41;4949130;27;20068;-57
2023/03/13 01:47:25;;;;;;;3.60;1.67;;;;;;;8.68;64.14;100248.91;4937923;28;20047;-56
2023/03/13 01:49:55;;;;;;;10.43;2.50;;;;;;;8.96;63.93;100242.59;4948808;28;20043;-54
2023/03/13 01:52:30;;;;;;;7.82;2.40;;;;;;;9.09;63.32;100216.41;4951642;27;20047;-57
2023/03/13 01:55:10;;;;;;;5.72;2.08;;;;;;;8.71;63.10;100176.84;4940986;27;20057;-56
2023/03/13 01:57:46;;;;;;;5.75;1.90;;;;;;;8.99;63.48;100234.72;4958671;27;20053;-56
2023/03/13 02:00:20;;;;;;;3.35;1.90;;;;;;;8.97;63.38;100231.28;4961431;27;20054;-57
2023/03/13 02:02:53;;;;;;;6.35;1.83;;;;;;;9.02;63.27;100229.47;4941513;28;20054;-56
2023/03/13 02:05:27;;;;;;;5.65;1.80;;;;;;;8.98;63.30;100227.78;4945623;28;20055;-55
2023/03/13 02:08:02;;;;;;;3.80;2.00;;;;;;;8.93;63.79;100224.34;4944448;28;20069;-57
2023/03/13 02:10:40;;;;;;;4.43;1.85;;;;;;;8.85;63.60;100205.34;4934093;28;20047;-55
2023/03/13 02:13:14;;;;;;;5.72;1.90;;;;;;;8.79;63.83;100216.69;4939056;27;20089;-57
2023/03/13 02:15:45;;;;;;;4.88;1.77;;;;;;;8.88;63.84;100200.09;4945070;27;20139;-57
2023/03/13 02:18:17;;;;;;;6.72;1.90;;;;;;;8.97;63.41;100189.56;4944798;28;20059;-56
2023/03/13 02:20:50;;;;;;;2.92;1.80;;;;;;;9.05;63.44;100203.38;4945120;28;20132;-56
2023/03/13 02:23:28;;;;;;;6.20;2.35;;;;;;;9.13;63.08;100189.41;4959671;27;20071;-57
2023/03/13 02:26:01;;;;;;;4.07;1.77;;;;;;;9.64;62.14;100192.25;4966529;27;20129;-58
2023/03/13 02:28:35;;;;;;;5.20;1.90;;;;;;;10.07;61.32;100196.84;4955819;27;20533;-56
2023/03/13 02:31:06;;;;;;;4.90;1.77;;;;;;;10.36;59.12;100184.22;4964285;27;20396;-57
2023/03/13 02:33:40;;;;;;;4.68;2.00;;;;;;;10.37;59.27;100190.28;4961961;28;20054;-57
2023/03/13 02:36:13;;;;;;;3.75;1.90;;;;;;;10.11;59.42;100182.84;4954869;28;20064;-58
2023/03/13 02:38:48;;;;;;;5.28;1.60;;;;;;;9.79;60.40;100191.16;4963485;28;20059;-56
2023/03/13 02:41:22;;;;;;;5.50;2.10;;;;;;;9.54;61.29;100190.66;4963621;28;20057;-56
2023/03/13 02:43:52;;;;;;;4.60;1.92;;;;;;;9.38;61.56;100185.59;4953688;28;20196;-57
2023/03/13 02:46:23;;;;;;;3.47;2.00;;;;;;;9.06;62.57;100199.03;4950686;28;20043;-57
2023/03/13 02:48:55;;;;;;;6.20;1.83;;;;;;;8.81;63.65;100193.22;4948380;28;20071;-57
2023/03/13 02:51:30;;;;;;;10.82;2.58;;;;;;;8.66;64.02;100191.63;4947803;28;20402;-57
2023/03/13 02:54:03;;;;;;;8.65;2.70;;;;;;;8.66;64.23;100193.38;4939307;28;20161;-57
2023/03/13 02:56:39;;;;;;;6.18;2.33;;;;;;;8.70;64.16;100189.88;4947787;28;20097;-58
2023/03/13 02:59:09;;;;;;;5.10;2.20;;;;;;;8.60;64.35;100187.34;4947447;28;20766;-58
2023/03/13 03:01:40;;;;;;;7.85;2.50;;;;;;;8.58;64.90;100176.06;4943978;28;20167;-59
2023/03/13 03:04:11;;;;;;;5.30;2.53;;;;;;;8.61;65.06;100173.47;4947852;28;20173;-59
2023/03/13 03:06:41;;;;;;;7.70;2.92;;;;;;;8.60;65.02;100174.31;4944704;28;20521;-59
2023/03/13 03:09:12;;;;;;;6.13;2.63;;;;;;;8.41;65.37;100177.97;4943786;28;20047;-59
2023/03/13 03:11:44;;;;;;;5.68;2.38;;;;;;;8.27;66.02;100174.59;4947272;28;20043;-59
2023/03/13 03:14:15;;;;;;;8.45;2.35;;;;;;;8.07;66.22;100180.81;4947783;28;20051;-58
2023/03/13 03:16:46;;;;;;;8.90;3.08;;;;;;;7.88;66.80;100176.63;4947657;28;20172;-57
2023/03/13 03:19:17;;;;;;;9.85;2.88;;;;;;;7.72;67.47;100175.88;4944907;28;20075;-59
2023/03/13 03:21:49;;;;;;;11.68;2.80;;;;;;;7.73;67.68;100172.38;4947877;28;20048;-59
2023/03/13 03:24:20;;;;;;;10.75;4.13;;;;;;;7.67;67.26;100173.28;4946394;28;20508;-58
2023/03/13 03:26:52;;;;;;;15.98;3.75;;;;;;;7.64;67.11;100173.31;4952295;28;20057;-58
2023/03/13 03:29:23;;;;;;;10.60;3.72;;;;;;;7.61;68.16;100168.09;4960195;27;20135;-58
2023/03/13 03:31:53;;;;;;;10.40;3.28;;;;;;;7.70;68.44;100162.88;4964047;27;20063;-58
2023/03/13 03:34:24;;;;;;;10.00;3.67;;;;;;;7.76;67.74;100152.44;4951504;27;20134;-59
2023/03/13 03:36:55;;;;;;;6.63;3.28;;;;;;;7.75;67.68;100140.28;4951026;28;20134;-59
2023/03/13 03:39:26;;;;;;;6.85;2.50;;;;;;;7.37;67.84;100064.28;4948426;28;20069;-59
2023/03/13 03:41:58;;;;;;;20.45;4.93;;;;;;;7.72;67.14;100129.91;4946713;28;20075;-59
2023/03/13 03:44:29;;;;;;;15.55;5.30;;;;;;;7.56;67.40;100108.34;4948723;28;20057;-59
2023/03/13 03:46:59;;;;;;;18.10;5.30;;;;;;;7.48;67.57;100098.88;4950729;28;20055;-58
2023/03/13 03:49:33;;;;;;;12.15;4.50;;;;;;;7.40;67.47;100100.66;4947580;27;20865;-58
2023/03/13 03:52:03;;;;;;;10.40;4.90;;;;;;;7.40;67.79;100085.06;4965815;27;20053;-60
2023/03/13 03:54:34;;;;;;;11.95;4.82;;;;;;;7.49;67.98;100064.22;4960909;27;20059;-59
2023/03/13 03:57:06;;;;;;;10.40;4.65;;;;;;;7.61;67.51;100069.28;4966147;27;20061;-59
2023/03/13 03:59:37;;;;;;;16.75;5.30;;;;;;;7.64;67.11;100071.91;4966478;27;20538;-58
2023/03/13 04:02:07;;;;;;;19.42;5.30;;;;;;;7.56;67.26;100066.75;4966589;27;20122;-59
2023/03/13 04:04:39;;;;;;;19.02;5.32;;;;;;;7.37;67.56;100048.69;4965882;27;20051;-61
2023/03/13 04:07:09;;;;;;;14.95;5.15;;;;;;;7.41;67.81;100042.59;4966721;27;24975;-61
2023/03/13 04:09:40;;;;;;;16.50;5.32;;;;;;;7.35;68.11;100049.56;4961730;27;20057;-61
2023/03/13 04:12:12;;;;;;;19.42;5.57;;;;;;;7.31;68.38;100053.06;4955747;27;21549;-60
2023/03/13 04:14:43;;;;;;;21.35;6.22;;;;;;;7.30;68.63;100053.91;4954799;27;20091;-59
2023/03/13 04:17:15;;;;;;;17.08;5.55;;;;;;;7.30;68.98;100040.91;4957732;27;20158;-59
2023/03/13 04:19:46;;;;;;;19.40;6.40;;;;;;;7.22;68.72;100040.13;4952912;27;20048;-60
2023/03/13 04:22:16;;;;;;;17.65;5.93;;;;;;;7.11;69.13;100047.09;4965244;27;20051;-60
2023/03/13 04:24:47;;;;;;;18.83;6.18;;;;;;;6.94;70.39;100035.94;4956143;27;20044;-59
2023/03/13 04:27:19;;;;;;;20.63;6.75;;;;;;;6.82;70.51;100027.34;4965411;27;20054;-60
2023/03/13 04:29:50;;;;;;;19.75;6.65;;;;;;;6.53;71.22;99990.25;4947315;27;20116;-59
2023/03/13 04:32:21;;;;;;;21.27;7.13;;;;;;;6.67;71.28;100019.63;4958815;27;20053;-59
2023/03/13 04:34:51;;;;;;;17.42;6.20;;;;;;;6.76;71.88;100008.31;4959667;27;20114;-60
2023/03/13 04:37:22;;;;;;;17.38;6.55;;;;;;;6.85;71.65;99998.75;4958786;27;20054;-59
2023/03/13 04:39:52;;;;;;;19.75;6.88;;;;;;;6.84;71.54;100017.81;4947385;27;20039;-59
2023/03/13 04:42:25;;;;;;;21.48;7.18;;;;;;;6.65;71.81;99998.00;4952759;27;20047;-59
2023/03/13 04:44:55;;;;;;;22.48;7.40;;;;;;;6.61;71.98;100030.03;4950775;27;20127;-61
2023/03/13 04:47:26;;;;;;;20.42;6.47;;;;;;;6.50;72.45;100005.88;4949464;27;20043;-59
2023/03/13 04:49:56;;;;;;;20.02;6.93;;;;;;;6.55;72.30;100001.50;4949622;27;20071;-59
2023/03/13 04:52:27;;;;;;;20.13;6.07;;;;;;;6.55;72.43;99993.72;4949772;27;20100;-60
2023/03/13 04:54:58;;;;;;;20.38;6.22;;;;;;;6.43;72.42;100005.88;4950365;27;20089;-60
2023/03/13 04:57:30;;;;;;;16.00;5.93;;;;;;;6.37;72.62;99979.94;4949631;27;20047;-61
2023/03/13 05:00:00;;;;;;;19.15;6.80;;;;;;;6.34;72.55;99969.59;4942350;27;20060;-60
2023/03/13 05:02:31;;;;;;;27.98;7.47;;;;;;;6.61;73.28;99989.34;4951114;27;20145;-61
2023/03/13 05:05:02;;;;;;;23.50;7.20;;;;;;;6.73;72.66;99998.81;4949146;28;20047;-62
2023/03/13 05:07:32;;;;;;;17.88;6.38;;;;;;;6.79;71.93;99983.22;4951660;27;20580;-61
2023/03/13 05:10:03;;;;;;;20.50;6.68;;;;;;;6.80;71.47;99969.34;4959355;27;20047;-61
2023/03/13 05:12:35;;;;;;;16.40;6.40;;;;;;;6.76;71.63;99962.44;4949503;27;20418;-61
2023/03/13 05:15:06;;;;;;;20.10;6.32;;;;;;;6.89;71.77;99963.25;4964805;27;20390;-61
2023/03/13 05:17:37;;;;;;;21.70;6.80;;;;;;;6.87;71.61;99959.81;4964342;27;20051;-62
2023/03/13 05:20:10;;;;;;;17.15;6.53;;;;;;;6.88;71.48;99962.38;4964381;27;20409;-62
2023/03/13 05:22:40;;;;;;;19.42;6.93;;;;;;;6.90;71.81;99933.81;4957558;27;20663;-61
2023/03/13 05:25:12;;;;;;;20.33;7.15;;;;;;;6.98;71.78;99937.19;4951104;28;20057;-62
2023/03/13 05:27:44;;;;;;;19.55;7.03;;;;;;;7.16;71.49;99936.19;4948587;27;20616;-61
2023/03/13 05:30:15;;;;;;;25.30;6.72;;;;;;;7.01;71.02;99941.50;4944951;28;20047;-62
2023/03/13 05:32:45;;;;;;;19.27;6.70;;;;;;;6.76;71.60;99946.88;4955549;27;20138;-60
2023/03/13 05:35:16;;;;;;;24.95;6.28;;;;;;;6.54;71.79;99924.50;4963897;27;20901;-62
2023/03/13 05:37:47;;;;;;;24.13;7.25;;;;;;;6.43;72.91;99922.81;4963370;27;20049;-61
2023/03/13 05:40:17;;;;;;;25.67;7.35;;;;;;;6.37;73.25;99907.28;4964017;27;20043;-61
2023/03/13 05:42:50;;;;;;;23.58;7.63;;;;;;;6.37;73.83;99902.09;4963083;27;20067;-62
2023/03/13 05:45:20;;;;;;;20.08;7.32;;;;;;;6.40;73.97;99912.47;4948275;27;20123;-64
2023/03/13 05:47:51;;;;;;;26.05;8.70;;;;;;;6.40;73.60;99911.59;4952474;27;20066;-64
2023/03/13 05:50:21;;;;;;;22.55;8.95;;;;;;;6.24;73.99;99915.97;4948079;28;20043;-62
2023/03/13 05:52:52;;;;;;;27.55;10.27;;;;;;;6.15;74.34;99911.72;4947832;28;20136;-61
2023/03/13 05:55:23;;;;;;;24.63;8.55;;;;;;;6.02;74.87;99920.41;4948813;28;20139;-62
2023/03/13 05:57:55;;;;;;;29.77;9.52;;;;;;;6.03;75.44;99902.22;4948764;28;20058;-62
2023/03/13 06:00:26;;;;;;;25.55;9.10;;;;;;;5.94;75.26;99917.84;4948253;28;20047;-62
2023/03/13 06:02:56;;;;;;;28.38;8.93;;;;;;;5.73;75.54;99907.50;4947970;28;20051;-61
2023/03/13 06:05:27;;;;;;;23.42;8.93;;;;;;;5.63;76.73;99901.47;4948058;28;20058;-62
2023/03/13 06:07:57;;;;;;;27.80;9.40;;;;;;;5.57;76.61;99884.19;4962556;27;20084;-62
2023/03/13 06:10:28;;;;;;;24.58;8.82;;;;;;;5.56;76.98;99879.88;4955009;27;20177;-62
2023/03/13 06:13:00;;;;;;;26.23;8.77;;;;;;;5.65;77.14;99883.31;4945498;28;20537;-62
2023/03/13 06:15:53;;;;;;;25.17;8.43;;;;;;;5.72;77.30;99885.88;4933911;28;20137;-62
2023/03/13 06:18:24;;;;;;;22.92;8.07;;;;;;;5.74;77.10;99884.16;4941168;27;20506;-63
2023/03/13 06:20:58;;;;;;;24.75;8.52;;;;;;;5.76;77.24;99871.19;4961580;27;20050;-63
2023/03/13 06:23:29;;;;;;;29.48;8.77;;;;;;;5.71;77.34;99878.09;4946380;27;20638;-64
2023/03/13 06:26:01;;;;;;;28.77;9.70;;;;;;;5.59;77.13;99873.81;4943208;28;20056;-63
2023/03/13 06:28:33;;;;;;;28.35;8.90;;;;;;;5.55;77.31;99872.97;4946347;28;20069;-62
2023/03/13 06:31:04;;;;;;;32.15;9.55;;;;;;;5.43;77.73;99867.81;4939759;28;20058;-62
2023/03/13 06:33:36;;;;;;;27.10;8.98;;;;;;;5.32;78.07;99874.75;4947532;28;20062;-62
2023/03/13 06:36:07;;;;;;;33.63;10.45;;;;;;;5.08;78.48;99835.03;4948064;28;20165;-63
2023/03/13 06:38:38;;;;;;;24.42;9.05;;;;;;;5.27;78.98;99861.78;4945210;28;20073;-63
2023/03/13 06:41:08;;;;;;;32.20;9.68;;;;;;;5.24;79.41;99866.09;4945591;28;20039;-62
2023/03/13 06:43:41;;;;;;;27.52;9.15;;;;;;;5.16;79.37;99848.84;4944237;28;20055;-63
2023/03/13 06:46:18;;;;;;;24.15;9.52;;;;;;;5.00;79.89;99816.06;4936690;28;20142;-62
2023/03/13 06:48:48;;;;;;;28.30;9.70;;;;;;;5.11;80.20;99844.53;4944749;28;20051;-62
2023/03/13 06:51:22;;;;;;;23.30;9.82;;;;;;;5.05;80.85;99840.22;4961267;28;20425;-63
2023/03/13 06:53:53;;;;;;;27.30;9.02;;;;;;;5.10;81.01;99833.31;4939977;27;20054;-62
2023/03/13 06:56:23;;;;;;;24.20;9.98;;;;;;;5.12;81.10;99836.78;4956502;27;20066;-61
2023/03/13 06:58:55;;;;;;;29.90;9.52;;;;;;;5.02;81.58;99835.06;4948219;28;20051;-62
2023/03/13 07:01:28;;;;;;;27.40;9.15;;;;;;;5.10;81.77;99843.69;4949149;28;20048;-61
2023/03/13 07:03:59;;;;;;;27.65;9.73;;;;;;;5.10;82.08;99838.50;4947890;28;20043;-62
2023/03/13 07:06:29;;;;;;;26.35;10.10;;;;;;;4.93;81.76;99798.81;4953084;27;20049;-62
2023/03/13 07:09:00;;;;;;;31.10;9.45;;;;;;;5.05;81.91;99858.34;4973731;27;20060;-63
2023/03/13 07:11:31;;;;;;;25.92;9.00;;;;;;;4.90;82.17;99837.66;4952960;27;20059;-63
2023/03/13 07:14:03;;;;;;;23.50;9.00;;;;;;;4.89;83.02;99833.31;4950885;27;20180;-62
2023/03/13 07:16:48;;;;;;;37.97;10.73;;;;;;;4.80;83.05;99839.38;4923538;27;20047;-62
2023/03/13 07:19:20;;;;;;;33.88;10.30;;;;;;;4.68;83.48;99837.63;4950275;27;20060;-62
2023/03/13 07:21:51;;;;;;;27.27;9.43;;;;;;;4.64;84.32;99838.50;4950518;27;20057;-62
2023/03/13 07:24:25;;;;;;;30.20;9.00;;;;;;;4.61;84.45;99828.13;4949805;27;20080;-62
2023/03/13 07:26:56;;;;;;;31.65;10.35;;;;;;;4.52;84.97;99831.59;4948274;27;20048;-62
2023/03/13 07:29:37;;;;;;;26.77;8.90;;;;;;;4.45;85.31;99842.78;4937081;27;20081;-62
2023/03/13 07:32:08;;;;;;;30.13;9.43;;;;;;;4.39;85.52;99841.91;4948469;27;20134;-62
2023/03/13 07:34:39;;;;;;;27.73;9.63;;;;;;;4.33;86.80;99847.94;4949145;27;20051;-62
2023/03/13 07:37:09;;;;;;;32.22;10.20;;;;;;;4.23;87.42;99825.50;4947163;27;20116;-63
2023/03/13 07:39:40;;;;;;;38.63;11.98;;;;;;;4.10;88.01;99819.44;4955488;27;20119;-64
2023/03/13 07:42:11;;;;;;;32.20;11.90;;;;;;;4.00;88.67;99822.84;4953976;27;20036;-64
2023/03/13 07:44:43;;;;;;;27.30;9.27;;;;;;;3.99;89.56;99826.28;4948044;27;20052;-63
2023/03/13 07:47:14;;;;;;;37.25;10.57;;;;;;;3.91;90.07;99833.16;4948197;27;20062;-63
2023/03/13 07:49:45;;;;;;;23.90;8.45;;;;;;;3.83;90.13;99795.22;4948599;27;20473;-63
2023/03/13 07:52:16;;;;;;;34.55;9.48;;;;;;;3.81;90.64;99822.78;4949540;27;20142;-63
2023/03/13 07:54:47;;;;;;;23.30;9.05;;;;;;;3.74;91.06;99787.41;4947594;27;20954;-63
2023/03/13 07:57:17;;;;;;;33.85;9.18;;;;;;;3.71;92.05;99790.00;4947671;27;20065;-63
2023/03/13 07:59:49;;;;;;;26.70;9.00;;;;;;;3.72;92.59;99796.03;4948070;27;20054;-62
2023/03/13 08:02:25;;;;;;;32.75;9.35;;;;;;;3.64;92.94;99785.66;4944410;27;20132;-62
2023/03/13 08:05:20;;;;;;;32.88;9.63;;;;;;;3.63;93.24;99813.22;4935345;27;20364;-62
2023/03/13 08:07:59;;;;;;;27.48;9.23;;;;;;;3.61;93.86;99803.75;4937085;27;20103;-62
2023/03/13 08:10:36;;;;;;;27.48;9.13;;;;;;;3.58;94.10;99803.75;4944482;27;20063;-62
2023/03/13 08:13:09;;;;;;;26.58;9.15;;;;;;;3.54;94.07;99796.81;4947956;27;20057;-63
2023/03/13 08:15:41;;;;;;;28.65;8.68;;;;;;;3.48;94.58;99799.38;4945589;27;20056;-63
2023/03/13 08:18:14;;;;;;;31.63;10.43;;;;;;;3.53;94.91;99795.09;4948459;27;20054;-63
2023/03/13 08:20:46;;;;;;;24.55;8.43;;;;;;;3.59;95.37;99784.78;4949063;27;20652;-63
2023/03/13 08:23:24;;;;;;;25.77;8.32;;;;;;;3.53;95.04;99779.59;4946631;27;20047;-63
2023/03/13 08:25:56;;;;;;;27.55;9.40;;;;;;;3.50;95.52;99789.94;4937221;27;20048;-63
2023/03/13 08:28:30;;;;;;;31.00;8.30;;;;;;;3.50;96.06;99795.09;4948281;27;20040;-64
2023/03/13 08:31:11;;;;;;;25.00;7.88;;;;;;;3.44;96.02;99791.63;4937766;27;20402;-63
2023/03/13 08:33:44;;;;;;;22.48;7.22;;;;;;;3.46;96.84;99783.88;4936507;27;20050;-64
2023/03/13 08:36:16;;;;;;;32.28;7.80;;;;;;;3.49;96.95;99788.19;4948183;27;20370;-63
2023/03/13 08:38:48;;;;;;;21.60;6.82;;;;;;;3.30;96.91;99777.78;4947211;27;20469;-64
2023/03/13 08:41:27;;;;;;;23.95;6.90;;;;;;;3.41;97.10;99776.09;4938711;27;20089;-64
2023/03/13 08:44:11;;;;;;;17.92;6.57;;;;;;;3.51;97.65;99786.47;4920439;27;20058;-64
2023/03/13 08:46:44;;;;;;;21.52;6.28;;;;;;;3.53;97.68;99774.44;4938030;27;20074;-64
2023/03/13 08:49:26;;;;;;;22.25;6.78;;;;;;;3.60;97.54;99796.88;4937419;27;20047;-64
2023/03/13 08:52:01;;;;;;;16.75;5.18;;;;;;;3.63;98.91;99797.72;4936453;27;20069;-64
2023/03/13 08:54:38;;;;;;;18.85;6.43;;;;;;;3.38;98.68;99781.25;4947354;27;20057;-64
2023/03/13 08:57:19;;;;;;;23.08;6.00;;;;;;;3.46;98.22;99815.72;4942411;27;20041;-64
2023/03/13 08:59:50;;;;;;;20.15;5.85;;;;;;;3.23;98.30;99832.81;4946975;27;20055;-65
2023/03/13 09:02:28;;;;;;;22.02;6.88;;;;;;;3.10;98.85;99837.03;4940729;27;20056;-64
2023/03/13 09:05:13;;;;;;;19.27;5.70;;;;;;;2.98;98.55;99853.28;4940573;27;20048;-65
2023/03/13 09:07:49;;;;;;;23.90;6.28;;;;;;;2.80;98.89;99837.66;4947817;27;20199;-65
2023/03/13 09:10:22;;;;;;;18.17;5.63;;;;;;;2.80;99.19;99853.16;4944515;27;20408;-64
2023/03/13 09:13:13;;;;;;;18.00;5.93;;;;;;;2.76;99.70;99859.13;4947114;27;20166;-65
2023/03/13 09:15:54;;;;;;;22.50;6.82;;;;;;;2.75;99.55;99854.84;4936370;27;20039;-65
2023/03/13 09:18:31;;;;;;;19.47;6.10;;;;;;;2.46;99.73;99832.19;4934887;27;20690;-64
2023/03/13 09:21:03;;;;;;;21.90;5.95;;;;;;;2.23;99.60;99807.91;4936557;27;20360;-64
2023/03/13 09:23:39;;;;;;;19.60;6.05;;;;;;;2.62;99.87;99889.97;4946315;27;20180;-64
2023/03/13 09:26:17;;;;;;;21.15;5.53;;;;;;;2.53;99.76;99875.25;4942809;27;20121;-64
2023/03/13 09:28:54;;;;;;;20.45;5.88;;;;;;;2.51;99.71;99892.41;4936734;27;20063;-64
2023/03/13 09:31:26;;;;;;;13.52;5.50;;;;;;;2.42;99.52;99907.81;4945708;27;21044;-64
2023/03/13 09:34:05;;;;;;;24.13;5.90;;;;;;;2.36;99.85;99907.75;4944368;27;20140;-64
2023/03/13 09:36:44;;;;;;;12.85;5.25;;;;;;;2.25;98.97;99922.22;4934720;27;20398;-64
2023/03/13 09:39:14;;;;;;;23.88;5.93;;;;;;;2.18;98.88;99917.84;4934378;27;20082;-64
2023/03/13 09:41:53;;;;;;;17.60;5.55;;;;;;;2.03;98.80;99934.84;4946291;27;20132;-63
2023/03/13 09:48:19;;;;;;;25.48;5.50;;;;;;;1.78;99.29;99927.63;4933973;27;20059;-64
2023/03/13 09:51:00;;;;;;;26.75;6.30;;;;;;;1.76;98.80;99935.34;4933169;27;20064;-64
2023/03/13 09:53:56;;;;;;;20.05;6.82;;;;;;;1.63;98.31;99944.59;4940481;27;20468;-63
2023/03/13 09:56:44;;;;;;;22.80;7.40;;;;;;;1.46;98.88;99941.78;4924919;27;20066;-63
2023/03/13 09:59:25;;;;;;;35.53;7.43;;;;;;;1.45;99.02;99957.22;4936006;27;20542;-64
2023/03/13 10:01:59;;;;;;;23.95;7.03;;;;;;;1.36;99.42;99949.34;4935555;27;20058;-64
2023/03/13 10:04:39;;;;;;;27.33;7.75;;;;;;;1.46;99.47;99971.81;4942702;27;20048;-64
2023/03/13 10:07:19;;;;;;;20.17;6.60;;;;;;;1.51;99.89;99960.72;4941784;27;20471;-64
2023/03/13 10:09:54;;;;;;;28.05;7.50;;;;;;;1.51;99.54;99959.88;4941479;27;20117;-64
2023/03/13 10:12:29;;;;;;;26.38;7.10;;;;;;;1.12;99.55;99896.63;4945806;27;20047;-64
2023/03/13 10:15:28;;;;;;;27.00;7.32;;;;;;;1.52;99.42;99951.28;4943665;27;20052;-64
2023/03/13 10:18:12;;;;;;;21.63;6.57;;;;;;;1.62;99.70;99958.34;4924746;27;20620;-63
2023/03/13 10:20:49;;;;;;;27.38;7.35;;;;;;;1.76;99.91;99955.09;4935356;27;20504;-64
2023/03/13 10:23:39;;;;;;;24.35;6.75;;;;;;;1.81;99.19;99963.75;4940423;27;20690;-64
2023/03/13 10:26:20;;;;;;;23.02;7.88;;;;;;;1.87;98.86;99958.66;4932775;27;20053;-64
2023/03/13 10:29:18;;;;;;;21.65;6.95;;;;;;;1.86;98.72;99962.09;4936309;28;20059;-63
2023/03/13 10:32:05;;;;;;;24.13;7.57;;;;;;;1.86;98.17;99967.25;4927199;28;20052;-64
2023/03/13 10:34:56;;;;;;;29.20;7.20;;;;;;;1.57;97.70;99923.88;4933110;28;20071;-65
2023/03/13 10:37:46;;;;;;;28.15;8.02;;;;;;;1.80;97.99;99972.28;4934933;28;20510;-64
2023/03/13 10:41:07;;;;;;;22.05;7.63;;;;;;;1.76;97.58;99976.56;4935211;28;20127;-64
2023/03/13 10:43:52;;;;;;;21.67;7.18;;;;;;;1.83;98.01;99973.22;4953869;28;20047;-64
2023/03/13 10:46:30;;;;;;;26.80;8.60;;;;;;;1.75;97.40;99973.94;4934827;28;20132;-65
2023/03/13 10:49:16;;;;;;;22.83;7.43;;;;;;;1.68;97.71;99963.56;4940386;28;20060;-65
2023/03/13 10:51:55;;;;;;;20.50;7.68;;;;;;;1.71;97.61;99979.06;4931771;28;21646;-64
2023/03/13 10:54:27;;;;;;;26.60;8.43;;;;;;;1.81;97.83;99972.34;4944989;28;20139;-64
2023/03/13 10:57:29;;;;;;;21.40;7.72;;;;;;;1.88;97.59;99988.75;4945883;28;20826;-65
2023/03/13 11:00:04;;;;;;;19.48;7.18;;;;;;;1.96;97.44;99992.28;4946053;28;20178;-65
2023/03/13 11:02:40;;;;;;;20.85;7.68;;;;;;;1.86;97.07;99985.28;4934040;28;20063;-64
2023/03/13 11:05:34;;;;;;;25.02;7.78;;;;;;;1.83;96.93;99985.25;4939535;28;20059;-64
2023/03/13 11:08:21;;;;;;;24.67;8.30;;;;;;;1.78;96.98;99977.44;4935093;28;20061;-64
2023/03/13 11:11:18;;;;;;;21.15;8.18;;;;;;;1.65;96.59;99948.06;4932519;28;20043;-64
2023/03/13 11:13:59;;;;;;;24.40;8.70;;;;;;;1.91;96.30;99992.22;4934108;28;20147;-65
2023/03/13 11:16:31;;;;;;;26.42;9.10;;;;;;;1.87;96.18;99999.88;4934818;28;21673;-64
2023/03/13 11:19:49;;;;;;;21.52;8.73;;;;;;;1.87;96.52;99994.72;4934505;28;20043;-64
2023/03/13 11:22:31;;;;;;;25.48;8.90;;;;;;;1.79;96.29;99986.03;4846761;28;20073;-64
2023/03/13 11:25:12;;;;;;;;;;;;;;;1.90;96.30;99990.50;4935245;28;20402;-64
2023/03/13 11:27:56;;;;;;;25.17;8.43;;;;;;;1.99;96.79;99994.91;4934883;28;19928;-64
2023/03/13 11:30:56;;;;;;;22.90;8.95;;;;;;;2.01;96.40;99993.22;4934383;28;20055;-64
2023/03/13 11:33:52;;;;;;;27.65;9.05;;;;;;;1.96;95.89;99999.16;4935095;28;20105;-64
2023/03/13 11:36:34;;;;;;;22.40;8.68;;;;;;;1.67;95.62;99946.38;4933587;28;20054;-64
2023/03/13 11:39:40;;;;;;;24.85;10.73;;;;;;;1.84;95.76;99979.25;4934666;28;20079;-64
2023/03/13 11:42:37;;;;;;;29.70;10.60;;;;;;;1.80;96.52;99967.13;4927901;27;20058;-64
2023/03/13 11:45:29;;;;;;;24.30;9.43;;;;;;;1.86;96.34;99972.41;4921276;27;20951;-64
2023/03/13 11:48:07;;;;;;;23.33;9.57;;;;;;;1.83;96.57;99973.22;4937183;27;20069;-64
2023/03/13 11:50:45;;;;;;;25.60;9.85;;;;;;;1.83;96.39;99977.53;4937380;27;20055;-65
2023/03/13 11:53:39;;;;;;;45.75;20.73;;;;;;;1.83;96.68;99972.38;4939568;27;20054;-65
2023/03/13 11:56:28;;;;;;;25.98;12.43;;;;;;;1.81;97.11;99979.19;4947877;27;20050;-65
2023/03/13 11:59:23;;;;;;;32.50;13.98;;;;;;;1.85;97.13;99986.13;4937420;27;20086;-65
2023/03/13 12:02:23;;;;;;;37.67;14.80;;;;;;;1.77;97.03;99973.13;4927194;27;20429;-65
2023/03/13 12:05:13;;;;;;;28.23;10.93;;;;;;;1.78;96.94;99976.59;4936722;27;20044;-65
2023/03/13 12:07:55;;;;;;;27.85;11.98;;;;;;;1.79;97.27;99970.56;4937446;27;20062;-64
2023/03/13 12:10:39;;;;;;;35.78;14.93;;;;;;;1.81;97.54;99982.63;4937489;27;20063;-63
2023/03/13 12:13:17;;;;;;;36.10;17.20;;;;;;;1.78;97.73;99981.75;4933938;27;20052;-63